createdAt,value
2023-05-14T00:00:29.266Z,38.78
2023-05-14T00:02:55.987Z,33.33
2023-05-14T00:05:22.902Z,40.60
2023-05-14T00:07:49.421Z,40.85
2023-05-14T00:10:17.607Z,35.53
2023-05-14T00:15:10.615Z,32.38
2023-05-14T00:17:37.579Z,37.05
2023-05-14T00:20:07.153Z,34.70
2023-05-14T00:22:34.166Z,33.38
2023-05-14T00:25:00.926Z,34.78
2023-05-14T00:27:27.440Z,31.85
2023-05-14T00:29:54.031Z,39.08
2023-05-14T00:32:20.742Z,38.08
2023-05-14T00:34:47.298Z,34.42
2023-05-14T00:37:13.786Z,31.02
2023-05-14T00:39:40.304Z,34.85
2023-05-14T00:42:06.991Z,39.00
2023-05-14T00:44:33.558Z,38.40
2023-05-14T00:47:00.517Z,40.05
2023-05-14T00:49:28.579Z,35.83
2023-05-14T00:51:55.825Z,38.78
2023-05-14T00:54:22.840Z,38.88
2023-05-14T00:56:49.396Z,32.53
2023-05-14T00:59:16.172Z,31.83
2023-05-14T01:01:42.696Z,40.40
2023-05-14T01:04:10.930Z,39.17
2023-05-14T01:09:32.717Z,40.08
2023-05-14T01:12:41.840Z,37.28
2023-05-14T01:15:13.164Z,34.80
2023-05-14T01:17:46.571Z,35.35
2023-05-14T01:20:13.510Z,37.90
2023-05-14T01:22:40.080Z,36.47
2023-05-14T01:25:07.327Z,43.25
2023-05-14T01:27:52.708Z,41.10
2023-05-14T01:30:45.436Z,38.75
2023-05-14T01:33:14.703Z,39.47
2023-05-14T01:35:41.649Z,38.63
2023-05-14T01:38:11.679Z,44.92
2023-05-14T01:40:38.425Z,40.95
2023-05-14T01:43:05.688Z,45.13
2023-05-14T01:45:35.437Z,43.50
2023-05-14T01:48:02.157Z,40.30
2023-05-14T01:50:28.685Z,46.08
2023-05-14T01:52:56.590Z,35.42
2023-05-14T01:55:26.981Z,32.60
2023-05-14T01:57:53.730Z,42.10
2023-05-14T02:00:22.031Z,43.67
2023-05-14T02:02:48.756Z,37.05
2023-05-14T02:05:15.366Z,41.17
2023-05-14T02:07:41.879Z,40.70
2023-05-14T02:10:08.907Z,55.47
2023-05-14T02:12:35.461Z,35.47
2023-05-14T02:15:03.733Z,39.40
2023-05-14T02:19:56.694Z,38.50
2023-05-14T02:22:23.178Z,41.08
2023-05-14T02:24:52.483Z,40.75
2023-05-14T02:27:19.363Z,37.40
2023-05-14T02:29:45.874Z,36.13
2023-05-14T02:32:12.548Z,39.53
2023-05-14T02:34:39.099Z,33.15
2023-05-14T02:37:05.632Z,39.92
2023-05-14T02:39:32.154Z,36.72
2023-05-14T02:41:58.672Z,38.97
2023-05-14T02:44:25.187Z,37.33
2023-05-14T02:46:51.794Z,38.33
2023-05-14T02:49:18.345Z,38.53
2023-05-14T02:51:44.936Z,40.38
2023-05-14T02:54:11.512Z,45.17
2023-05-14T02:56:38.027Z,42.05
2023-05-14T02:59:04.630Z,42.45
2023-05-14T03:01:31.633Z,40.30
2023-05-14T03:03:58.694Z,38.33
2023-05-14T03:06:25.295Z,39.97
2023-05-14T03:08:51.816Z,42.72
2023-05-14T03:11:18.333Z,44.83
2023-05-14T03:13:44.818Z,38.33
2023-05-14T03:16:11.510Z,42.33
2023-05-14T03:18:38.175Z,40.35
2023-05-14T03:21:04.950Z,43.85
2023-05-14T03:23:35.135Z,41.67
2023-05-14T03:26:02.304Z,38.35
2023-05-14T03:28:28.901Z,39.95
2023-05-14T03:30:55.464Z,32.20
2023-05-14T03:33:22.742Z,36.85
2023-05-14T03:35:49.392Z,42.90
2023-05-14T03:38:15.913Z,35.38
2023-05-14T03:40:42.484Z,38.42
2023-05-14T03:43:08.980Z,37.28
2023-05-14T03:45:35.698Z,43.70
2023-05-14T03:48:02.544Z,38.05
2023-05-14T03:50:29.371Z,36.78
2023-05-14T03:52:56.284Z,40.38
2023-05-14T03:55:22.938Z,39.33
2023-05-14T03:57:49.464Z,37.42
2023-05-14T04:00:16.372Z,37.30
2023-05-14T04:02:43.032Z,34.67
2023-05-14T04:05:09.842Z,32.58
2023-05-14T04:07:36.434Z,33.80
2023-05-14T04:10:04.738Z,42.33
2023-05-14T04:12:31.495Z,40.38
2023-05-14T04:14:58.644Z,33.00
2023-05-14T04:17:25.859Z,39.08
2023-05-14T04:19:52.440Z,31.92
2023-05-14T04:22:19.052Z,49.50
2023-05-14T04:24:45.954Z,39.17
2023-05-14T04:27:18.181Z,33.83
2023-05-14T04:29:44.750Z,30.05
2023-05-14T04:32:12.239Z,35.53
2023-05-14T04:34:38.698Z,39.60
2023-05-14T04:37:05.231Z,36.10
2023-05-14T04:39:31.745Z,32.75
2023-05-14T04:41:58.289Z,40.17
2023-05-14T04:44:24.780Z,33.92
2023-05-14T04:46:51.403Z,39.40
2023-05-14T04:49:18.060Z,35.20
2023-05-14T04:51:44.571Z,41.97
2023-05-14T04:54:11.371Z,30.98
2023-05-14T04:56:37.896Z,36.83
2023-05-14T04:59:04.457Z,32.75
2023-05-14T05:01:31.417Z,33.38
2023-05-14T05:03:58.200Z,40.78
2023-05-14T05:06:24.758Z,35.22
2023-05-14T05:08:51.255Z,41.38
2023-05-14T05:11:17.863Z,38.50
2023-05-14T05:13:44.417Z,42.65
2023-05-14T05:16:10.981Z,47.22
2023-05-14T05:18:37.776Z,45.20
2023-05-14T05:21:04.346Z,41.03
2023-05-14T05:23:30.852Z,43.88
2023-05-14T05:25:57.358Z,43.92
2023-05-14T05:28:23.896Z,44.72
2023-05-14T05:30:50.380Z,42.00
2023-05-14T05:33:16.898Z,39.03
2023-05-14T05:35:44.556Z,36.70
2023-05-14T05:38:11.097Z,40.55
2023-05-14T05:40:37.677Z,42.90
2023-05-14T05:43:04.280Z,41.65
2023-05-14T05:45:30.852Z,38.53
2023-05-14T05:47:57.408Z,44.60
2023-05-14T05:50:24.715Z,42.83
2023-05-14T05:52:52.022Z,41.72
2023-05-14T05:55:19.171Z,44.30
2023-05-14T05:57:45.768Z,44.10
2023-05-14T06:00:13.258Z,39.05
2023-05-14T06:02:43.118Z,38.95
2023-05-14T06:05:10.816Z,37.55
2023-05-14T06:07:37.462Z,39.75
2023-05-14T06:10:05.004Z,40.78
2023-05-14T06:12:31.543Z,31.65
2023-05-14T06:14:58.052Z,32.97
2023-05-14T06:17:25.685Z,34.80
2023-05-14T06:19:52.919Z,33.38
2023-05-14T06:22:19.739Z,38.42
2023-05-14T06:24:46.550Z,42.05
2023-05-14T06:27:13.151Z,35.20
2023-05-14T06:29:39.715Z,36.92
2023-05-14T06:32:06.742Z,37.90
2023-05-14T06:34:33.446Z,39.60
2023-05-14T06:37:00.389Z,38.38
2023-05-14T06:39:26.895Z,37.05
2023-05-14T06:41:53.406Z,35.08
2023-05-14T06:44:19.969Z,29.88
2023-05-14T06:46:46.485Z,33.15
2023-05-14T06:49:13.051Z,32.22
2023-05-14T06:51:40.760Z,36.50
2023-05-14T06:54:07.381Z,27.13
2023-05-14T06:56:35.079Z,29.92
2023-05-14T06:59:01.673Z,25.13
2023-05-14T07:01:28.344Z,25.60
2023-05-14T07:03:55.025Z,25.73
2023-05-14T07:06:21.784Z,26.20
2023-05-14T07:08:48.517Z,22.75
2023-05-14T07:11:15.467Z,26.92
2023-05-14T07:13:42.528Z,27.13
2023-05-14T07:16:11.853Z,25.52
2023-05-14T07:18:38.401Z,28.40
2023-05-14T07:21:06.547Z,31.52
2023-05-14T07:26:00.291Z,26.27
2023-05-14T07:28:26.785Z,23.60
2023-05-14T07:30:53.362Z,23.60
2023-05-14T07:33:19.920Z,26.27
2023-05-14T07:35:46.525Z,24.90
2023-05-14T07:38:13.262Z,28.23
2023-05-14T07:40:39.902Z,34.58
2023-05-14T07:43:06.412Z,35.13
2023-05-14T07:45:32.984Z,29.02
2023-05-14T07:47:59.623Z,32.13
2023-05-14T07:50:26.768Z,25.73
2023-05-14T07:52:53.391Z,30.67
2023-05-14T07:55:19.918Z,20.75
2023-05-14T07:57:46.431Z,22.88
2023-05-14T08:00:13.636Z,24.70
2023-05-14T08:02:40.414Z,25.20
2023-05-14T08:05:07.500Z,24.13
2023-05-14T08:07:34.015Z,24.85
2023-05-14T08:10:00.597Z,22.98
2023-05-14T08:12:27.444Z,22.77
2023-05-14T08:14:53.971Z,23.48
2023-05-14T08:17:20.497Z,19.65
2023-05-14T08:19:47.129Z,30.02
2023-05-14T08:22:13.809Z,21.83
2023-05-14T08:24:40.523Z,21.30
2023-05-14T08:27:07.220Z,19.63
2023-05-14T08:29:33.772Z,19.85
2023-05-14T08:32:05.779Z,21.27
2023-05-14T08:34:38.597Z,22.30
2023-05-14T08:37:05.126Z,25.30
2023-05-14T08:39:31.645Z,18.63
2023-05-14T08:41:58.684Z,21.90
2023-05-14T08:44:33.593Z,17.48
2023-05-14T08:47:00.204Z,18.38
2023-05-14T08:49:42.722Z,18.50
2023-05-14T08:52:10.149Z,17.30
2023-05-14T08:54:36.880Z,19.27
2023-05-14T08:57:04.971Z,15.88
2023-05-14T08:59:31.798Z,21.65
2023-05-14T09:02:02.140Z,18.55
2023-05-14T09:04:29.777Z,21.17
2023-05-14T09:06:56.386Z,18.17
2023-05-14T09:09:23.368Z,18.42
2023-05-14T09:11:51.373Z,18.98
2023-05-14T09:14:18.308Z,20.75
2023-05-14T09:16:49.607Z,15.98
2023-05-14T09:19:18.971Z,18.50
2023-05-14T09:21:47.157Z,18.38
2023-05-14T09:26:45.290Z,16.60
2023-05-14T09:29:11.832Z,18.90
2023-05-14T09:31:38.323Z,21.23
2023-05-14T09:34:04.903Z,16.98
2023-05-14T09:36:34.623Z,20.92
2023-05-14T09:39:03.912Z,18.92
2023-05-14T09:41:30.454Z,17.25
2023-05-14T09:43:58.040Z,14.68
2023-05-14T09:46:30.029Z,19.23
2023-05-14T09:48:56.889Z,20.65
2023-05-14T09:51:24.072Z,18.23
2023-05-14T09:53:53.046Z,14.90
2023-05-14T09:56:19.846Z,22.63
2023-05-14T09:58:46.355Z,23.52
2023-05-14T10:01:13.371Z,16.58
2023-05-14T10:03:40.266Z,20.77
2023-05-14T10:06:07.408Z,21.17
2023-05-14T10:08:35.919Z,19.38
2023-05-14T10:11:07.004Z,18.90
2023-05-14T10:13:39.287Z,20.40
2023-05-14T10:16:13.270Z,16.65
2023-05-14T10:18:41.802Z,19.52
2023-05-14T10:21:08.731Z,16.08
2023-05-14T10:23:37.857Z,18.48
2023-05-14T10:26:05.157Z,17.13
2023-05-14T10:28:32.120Z,19.00
2023-05-14T10:31:00.686Z,17.30
2023-05-14T10:33:27.512Z,22.05
2023-05-14T10:36:07.428Z,16.27
2023-05-14T10:38:36.438Z,16.25
2023-05-14T10:41:05.369Z,16.63
2023-05-14T10:43:37.068Z,16.10
2023-05-14T10:46:04.167Z,16.50
2023-05-14T10:48:31.076Z,17.40
2023-05-14T10:50:58.019Z,16.85
2023-05-14T10:53:34.659Z,15.90
2023-05-14T10:56:11.190Z,17.38
2023-05-14T10:58:42.444Z,15.68
2023-05-14T11:01:11.374Z,15.15
2023-05-14T11:03:42.489Z,12.07
2023-05-14T11:06:11.322Z,16.25
2023-05-14T11:08:38.858Z,16.67
2023-05-14T11:11:06.358Z,13.05
2023-05-14T11:13:34.498Z,18.02
2023-05-14T11:16:08.774Z,14.82
2023-05-14T11:18:42.191Z,15.52
2023-05-14T11:21:08.983Z,21.17
2023-05-14T11:23:35.554Z,17.17
2023-05-14T11:26:02.146Z,18.83
2023-05-14T11:28:29.785Z,16.85
2023-05-14T11:30:56.324Z,19.80
2023-05-14T11:33:22.842Z,15.52
2023-05-14T11:35:49.351Z,14.10
2023-05-14T11:38:16.557Z,15.52
2023-05-14T11:40:47.922Z,21.23
2023-05-14T11:43:14.525Z,17.17
2023-05-14T11:45:41.797Z,20.05
2023-05-14T11:48:18.029Z,14.52
2023-05-14T11:50:52.109Z,12.95
2023-05-14T11:53:29.283Z,14.25
2023-05-14T11:55:57.754Z,17.33
2023-05-14T11:58:24.820Z,14.05
2023-05-14T12:00:52.064Z,17.73
2023-05-14T12:03:25.727Z,13.27
2023-05-14T12:08:27.109Z,15.93
2023-05-14T12:10:54.193Z,21.50
2023-05-14T12:13:21.019Z,17.83
2023-05-14T12:15:54.312Z,12.27
2023-05-14T12:18:24.938Z,14.60
2023-05-14T12:20:52.210Z,15.60
2023-05-14T12:23:29.757Z,18.20
2023-05-14T12:26:02.360Z,19.50
2023-05-14T12:28:28.879Z,25.75
2023-05-14T12:30:59.765Z,18.65
2023-05-14T12:33:26.962Z,16.42
2023-05-14T12:35:54.164Z,16.75
2023-05-14T12:38:20.988Z,14.73
2023-05-14T12:40:47.619Z,17.15
2023-05-14T12:43:14.438Z,19.30
2023-05-14T12:45:41.034Z,17.08
2023-05-14T12:48:07.725Z,15.73
2023-05-14T12:50:34.335Z,17.63
2023-05-14T12:53:01.060Z,15.90
2023-05-14T12:55:27.673Z,13.95
2023-05-14T12:57:54.443Z,14.20
2023-05-14T13:00:21.083Z,16.42
2023-05-14T13:02:47.662Z,15.30
2023-05-14T13:05:14.268Z,18.73
2023-05-14T13:07:41.194Z,20.20
2023-05-14T13:10:08.494Z,18.80
2023-05-14T13:12:35.060Z,16.65
2023-05-14T13:15:01.602Z,15.88
2023-05-14T13:17:28.203Z,14.70
2023-05-14T13:19:54.792Z,23.88
2023-05-14T13:22:21.335Z,21.70
2023-05-14T13:24:47.853Z,16.40
2023-05-14T13:27:14.362Z,14.88
2023-05-14T13:29:40.872Z,13.25
2023-05-14T13:32:07.514Z,16.83
2023-05-14T13:34:34.267Z,14.98
2023-05-14T13:37:01.097Z,16.73
2023-05-14T13:39:27.653Z,17.48
2023-05-14T13:41:56.746Z,15.60
2023-05-14T13:44:23.553Z,13.65
2023-05-14T13:46:50.196Z,17.63
2023-05-14T13:49:16.816Z,19.67
2023-05-14T13:51:43.328Z,14.35
2023-05-14T13:54:10.300Z,17.98
2023-05-14T13:56:36.828Z,17.45
2023-05-14T13:59:03.549Z,13.55
2023-05-14T14:01:32.928Z,15.90
2023-05-14T14:03:59.533Z,15.60
2023-05-14T14:06:27.439Z,17.58
2023-05-14T14:11:20.756Z,12.02
2023-05-14T14:13:47.381Z,14.35
2023-05-14T14:16:13.937Z,16.70
2023-05-14T14:18:40.566Z,15.48
2023-05-14T14:21:07.133Z,19.80
2023-05-14T14:23:33.679Z,12.88
2023-05-14T14:26:00.711Z,14.30
2023-05-14T14:28:27.281Z,17.27
2023-05-14T14:30:53.932Z,12.98
2023-05-14T14:33:20.506Z,17.10
2023-05-14T14:35:47.121Z,16.65
2023-05-14T14:38:14.143Z,15.23
2023-05-14T14:40:40.758Z,12.25
2023-05-14T14:43:07.420Z,13.63
2023-05-14T14:45:34.074Z,12.50
2023-05-14T14:48:23.697Z,19.20
2023-05-14T14:50:50.420Z,15.82
2023-05-14T14:53:16.999Z,15.30
2023-05-14T14:55:43.557Z,13.77
2023-05-14T14:58:10.067Z,12.82
2023-05-14T15:00:36.586Z,15.20
2023-05-14T15:03:03.181Z,14.23
2023-05-14T15:05:29.741Z,16.48
2023-05-14T15:07:56.281Z,15.80
2023-05-14T15:10:22.828Z,10.77
2023-05-14T15:12:49.381Z,14.55
2023-05-14T15:15:16.060Z,13.40
2023-05-14T15:17:42.606Z,19.75
2023-05-14T15:20:10.047Z,15.40
2023-05-14T15:22:36.570Z,13.85
2023-05-14T15:25:04.028Z,15.70
2023-05-14T15:27:30.546Z,12.48
2023-05-14T15:29:57.037Z,17.00
2023-05-14T15:32:25.861Z,14.10
2023-05-14T15:34:52.506Z,14.23
2023-05-14T15:37:19.035Z,13.70
2023-05-14T15:39:45.582Z,14.73
2023-05-14T15:42:12.291Z,13.82
2023-05-14T15:44:39.122Z,15.27
2023-05-14T15:47:06.087Z,14.35
2023-05-14T15:49:32.635Z,11.73
2023-05-14T15:52:00.652Z,14.05
2023-05-14T15:56:53.783Z,11.25
2023-05-14T15:59:20.342Z,16.70
2023-05-14T16:01:46.937Z,11.02
2023-05-14T16:04:13.504Z,13.77
2023-05-14T16:06:41.962Z,16.83
2023-05-14T16:09:08.587Z,13.40
2023-05-14T16:11:35.121Z,13.65
2023-05-14T16:14:01.751Z,17.42
2023-05-14T16:16:28.300Z,14.27
2023-05-14T16:18:54.874Z,11.13
2023-05-14T16:21:21.472Z,15.45
2023-05-14T16:23:48.118Z,19.40
2023-05-14T16:26:14.657Z,13.20
2023-05-14T16:28:42.724Z,12.25
2023-05-14T16:33:35.805Z,8.77
2023-05-14T16:36:02.408Z,18.23
2023-05-14T16:38:28.889Z,17.52
2023-05-14T16:40:55.488Z,13.68
2023-05-14T16:43:22.176Z,13.15
2023-05-14T16:45:48.766Z,15.32
2023-05-14T16:48:16.407Z,12.50
2023-05-14T16:50:42.905Z,15.88
2023-05-14T16:53:09.407Z,12.15
2023-05-14T16:55:35.914Z,15.10
2023-05-14T16:58:02.546Z,14.70
2023-05-14T17:00:29.141Z,14.48
2023-05-14T17:02:55.822Z,16.55
2023-05-14T17:05:22.475Z,13.48
2023-05-14T17:07:49.143Z,19.48
2023-05-14T17:10:15.753Z,15.32
2023-05-14T17:12:42.349Z,12.85
2023-05-14T17:15:09.675Z,14.00
2023-05-14T17:17:36.346Z,10.90
2023-05-14T17:20:05.936Z,13.80
2023-05-14T17:22:32.503Z,11.00
2023-05-14T17:24:59.438Z,13.50
2023-05-14T17:27:26.360Z,11.45
2023-05-14T17:29:52.944Z,14.57
2023-05-14T17:32:19.561Z,12.45
2023-05-14T17:34:46.276Z,8.48
2023-05-14T17:37:13.023Z,12.10
2023-05-14T17:39:39.590Z,11.68
2023-05-14T17:42:06.695Z,15.52
2023-05-14T17:44:33.217Z,12.80
2023-05-14T17:47:00.575Z,14.13
2023-05-14T17:49:27.228Z,17.17
2023-05-14T17:51:53.799Z,11.90
2023-05-14T17:54:20.430Z,17.75
2023-05-14T17:56:48.156Z,17.25
2023-05-14T17:59:14.754Z,14.73
2023-05-14T18:01:41.290Z,16.58
2023-05-14T18:04:08.026Z,12.07
2023-05-14T18:06:34.631Z,17.05
2023-05-14T18:09:01.158Z,14.48
2023-05-14T18:11:33.611Z,18.15
2023-05-14T18:14:00.841Z,20.35
2023-05-14T18:16:27.857Z,15.93
2023-05-14T18:18:56.298Z,11.45
2023-05-14T18:21:23.053Z,15.20
2023-05-14T18:23:49.641Z,16.70
2023-05-14T18:26:16.202Z,12.52
2023-05-14T18:28:42.810Z,15.35
2023-05-14T18:31:09.395Z,17.95
2023-05-14T18:33:35.983Z,17.95
2023-05-14T18:36:02.586Z,13.20
2023-05-14T18:38:29.093Z,14.48
2023-05-14T18:40:55.691Z,15.70
2023-05-14T18:43:22.232Z,13.43
2023-05-14T18:45:51.636Z,15.48
2023-05-14T18:48:18.148Z,16.05
2023-05-14T18:50:44.831Z,18.83
2023-05-14T18:53:11.377Z,16.73
2023-05-14T18:55:38.163Z,13.45
2023-05-14T18:58:04.738Z,14.73
2023-05-14T19:00:31.454Z,13.80
2023-05-14T19:02:58.028Z,15.07
2023-05-14T19:05:24.784Z,19.27
2023-05-14T19:07:51.609Z,16.23
2023-05-14T19:10:18.271Z,13.15
2023-05-14T19:12:46.559Z,14.13
2023-05-14T19:15:13.082Z,17.52
2023-05-14T19:17:39.810Z,14.85
2023-05-14T19:20:07.952Z,19.52
2023-05-14T19:22:34.543Z,14.82
2023-05-14T19:25:01.391Z,20.40
2023-05-14T19:27:27.952Z,24.92
2023-05-14T19:29:54.465Z,19.33
2023-05-14T19:32:21.020Z,17.73
2023-05-14T19:34:48.471Z,20.88
2023-05-14T19:37:16.146Z,17.75
2023-05-14T19:39:42.660Z,17.70
2023-05-14T19:42:09.207Z,24.60
2023-05-14T19:44:35.887Z,23.10
2023-05-14T19:47:02.497Z,24.15
2023-05-14T19:49:29.082Z,27.42
2023-05-14T19:51:55.689Z,17.10
2023-05-14T19:54:22.222Z,24.30
2023-05-14T19:56:48.794Z,20.40
2023-05-14T19:59:15.562Z,25.00
2023-05-14T20:01:42.214Z,26.17
2023-05-14T20:04:09.040Z,25.75
2023-05-14T20:06:35.556Z,18.73
2023-05-14T20:09:02.137Z,21.33
2023-05-14T20:11:28.661Z,27.83
2023-05-14T20:13:55.187Z,24.58
2023-05-14T20:16:21.722Z,28.05
2023-05-14T20:18:48.385Z,23.08
2023-05-14T20:21:14.974Z,25.13
2023-05-14T20:23:41.501Z,23.75
2023-05-14T20:26:08.010Z,26.58
2023-05-14T20:28:34.521Z,29.88
2023-05-14T20:31:03.015Z,29.73
2023-05-14T20:33:30.546Z,28.92
2023-05-14T20:35:57.104Z,28.05
2023-05-14T20:38:25.631Z,29.75
2023-05-14T20:40:52.203Z,26.13
2023-05-14T20:43:18.784Z,29.70
2023-05-14T20:45:45.596Z,29.50
2023-05-14T20:48:16.119Z,35.60
2023-05-14T20:50:43.203Z,30.58
2023-05-14T20:53:09.799Z,30.13
2023-05-14T20:55:36.290Z,30.35
2023-05-14T20:58:02.838Z,30.38
2023-05-14T21:00:29.475Z,30.58
2023-05-14T21:02:56.636Z,26.80
2023-05-14T21:05:23.669Z,31.60
2023-05-14T21:07:50.547Z,33.55
2023-05-14T21:10:17.608Z,27.75
2023-05-14T21:12:44.883Z,34.13
2023-05-14T21:15:11.975Z,27.95
2023-05-14T21:17:38.532Z,29.00
2023-05-14T21:20:05.632Z,37.08
2023-05-14T21:22:32.451Z,36.47
2023-05-14T21:24:59.005Z,31.73
2023-05-14T21:27:26.608Z,38.00
2023-05-14T21:29:53.134Z,36.92
2023-05-14T21:32:20.249Z,30.98
2023-05-14T21:34:46.836Z,31.10
2023-05-14T21:37:13.637Z,34.03
2023-05-14T21:39:40.190Z,32.03
2023-05-14T21:42:07.134Z,31.58
2023-05-14T21:44:33.675Z,26.40
2023-05-14T21:47:00.268Z,28.05
2023-05-14T21:49:26.784Z,28.02
2023-05-14T21:51:54.547Z,29.33
2023-05-14T21:54:21.139Z,35.13
2023-05-14T21:56:47.772Z,30.92
2023-05-14T21:59:14.239Z,31.73
2023-05-14T22:02:04.963Z,31.92
2023-05-14T22:04:27.292Z,33.95
2023-05-14T22:06:53.843Z,34.33
2023-05-14T22:09:20.822Z,39.08
2023-05-14T22:11:47.317Z,38.90
2023-05-14T22:14:13.946Z,32.88
2023-05-14T22:16:40.574Z,35.67
2023-05-14T22:19:07.352Z,34.00
2023-05-14T22:21:33.890Z,34.90
2023-05-14T22:24:00.556Z,38.70
2023-05-14T22:26:27.148Z,40.05
2023-05-14T22:28:53.761Z,40.50
2023-05-14T22:31:20.356Z,36.38
2023-05-14T22:33:46.926Z,48.47
2023-05-14T22:36:13.489Z,42.13
2023-05-14T22:38:41.242Z,42.63
2023-05-14T22:41:07.774Z,46.50
2023-05-14T22:43:34.333Z,42.05
2023-05-14T22:46:00.890Z,50.53
2023-05-14T22:48:27.507Z,45.75
2023-05-14T22:50:54.049Z,38.92
2023-05-14T22:53:20.641Z,44.58
2023-05-14T22:55:47.246Z,40.72
2023-05-14T22:58:13.748Z,51.08
2023-05-14T23:00:40.326Z,42.92
2023-05-14T23:03:06.941Z,37.38
2023-05-14T23:05:33.587Z,41.03
2023-05-14T23:08:00.156Z,47.28
2023-05-14T23:10:26.894Z,47.90
2023-05-14T23:12:53.387Z,43.97
2023-05-14T23:15:20.047Z,45.10
2023-05-14T23:17:46.686Z,53.58
2023-05-14T23:20:13.224Z,45.63
2023-05-14T23:22:40.324Z,46.17
2023-05-14T23:25:07.814Z,48.95
2023-05-14T23:27:34.963Z,47.72
2023-05-14T23:30:01.553Z,46.38
2023-05-14T23:32:28.108Z,44.15
2023-05-14T23:34:54.817Z,48.20
2023-05-14T23:37:21.460Z,40.88
2023-05-14T23:39:48.000Z,47.85
2023-05-14T23:42:14.620Z,49.60
2023-05-14T23:44:41.182Z,49.10
2023-05-14T23:47:08.754Z,46.97
2023-05-14T23:49:35.497Z,43.08
2023-05-14T23:52:02.363Z,47.70
2023-05-14T23:54:28.940Z,41.92
2023-05-14T23:56:55.478Z,48.38
2023-05-14T23:59:22.476Z,45.95
